El Centro Naf Airport
KNJK : now visible

Airfield :











YOU CAN JOIN US ON...

 
LOGIN :

Register | Disclaimer

   EN    FR    IT 

 









Legend :    VFR   Marginal VFR   IFR   Intensive IFR   Very Intensive IFR
Visi :
Ceiling :
>= 8 km
>= 3000ft
5 to 8 km
1000 to 3000 ft
1500m to 5 km
500 to 1000 ft
800 to 1500m
200 to 500 ft
< 800m
< 200 ft
Symbols :   Thunderstorms  Fog  Heavy snow  Heavy precipitations  Wind > 20 kt






- Airport Elevation : -42 ft


KNJK - El Centro Naf

CURRENT METAR :
  • 151156Z AUTO 25020KT 10SM -RA CLR 15/04 A2985 RMK AO2 PK WND 25028/1114 SLP122 P0000 60000 T01500039 10167 20144 50004

EXPIRED METARs :
  • 151056Z AUTO 25023G30KT 10SM -RA CLR 15/04 A2986 RMK AO2 PK WND 26030/1052 SLP127 P0000 T01500039
  • 150956Z AUTO 24019KT 10SM -RA CLR 15/04 A2985 RMK AO2 PK WND 25028/0910 RAE29B52 SLP123 P0000 T01500039

TAF AMD TAF KNJK
Valid from the 15 at 01:00 until the 15 at 15:00 UTC


1501/1515 26019G26KT 9999 FEW250 530009 530909 551809 QNH2970INS
TEMPO 1501/1507 25017G22KT
BECMG 1511/1513 26017G24KT 9999 FEW250 530009 530909 551809 QNH2975INS
TEMPO 1513/1515 27012KT T20/1501Z T09/1514Z AMD 0122 FS30118



MET'MAP, your aeronautical weather chart ! - Copyright ORBIFLY December 2007 - Disclaimer

ORBIFLY MET'MAP TEAM :

Programming & Development : Alexandra Zaïnal
Concept & original design : Baudouin d'Aumeries
Assistance for programming : Marc-Olivier Méhu
Technical & hardware support : Manuel Goepfert

Contact : metmap@orbifly.com




SOURCES & CREDITS :

   NOAA       Earth
Advisory